罗盘
风向 的 风向 的 风向 到 风向 200° Goch-Asperden Airport 10/28
风: 7 kt, 3 beaufort

1 kt

7 kt
改变
0 1.000 2.000 3.000 4.000 5.000
未检测到零云
METAR EHVK 300925Z AUTO 20007KT 150V220 9999 NCD 13/09 Q1010 BLU NOSIG

METAR Goch-Asperden Airport - EDLG

Goch-Asperden Airport是Goch,德国中的小机场。 该机场有一条跑道: 10/28. 该领域的国际民航组织标志是EDLG.

这份报告是针对2022年9月30日 11:25, 当地时间在Volkel Air Base进行的。

机场观察

风向为200°,速度为7 kt。 风向在150°和220°之间变化。

可见度为10 km 或者更多。

有未检测到零云。 没有观察到天花板。

温度和风寒是13 °C。 露点为9 °C,相对湿度为77%。 海平面上的气压为1010 hPa (QNH)。

白天

今天,太阳从07:34升起,在19:16降落。 这适用于Goch-Asperden Airport,世界夏令时可能有所不同。 当地时间与世界标准时间之间的时差为+2 小时。 夏令时目前正在进行中。

公司介绍

我们没有关于这个机场的公司信息。

体会

到Vliegles.nl去找飞行课程,跳伞和其他飞行体验。 浏览页面,了解Goch-Asperden Airport附近所有可用的活动。 你也可以使用搜索功能来寻找你所在地附近的特定飞行课程、跳伞或其他飞行体验。

跑道

Id 标题 侧风 逆风 侧风 %
10/28 099°-279° 7 kt 1 kt 98 %

逆风成分最大的方向会被突出显示,并用于横风计算。 这并不一定意味着这个方向在使用。

乌云

- NCD 未检测到零云

温度 & 天气

温度 13 °C
露点 9 °C
相对湿度 77%
Kp-index 2 (0-9)

白天

日出
07:36
中午
13:27
日落
19:17 (7h 19m)

小工具

你想在你的网站上有一个关于Goch-Asperden Airport的当前航空天气(METAR)的小部件吗?

</> 显示HTML代码

我们和第三方通过cookies跟踪您在我们网站上的上网行为。如果您继续,我们认为您同意我们的cookie政策。 了解更多